Airfield :
LOGIN :

Register | Disclaimer

   EN    FR    IT 

 










Legend :    VFR   Marginal VFR   IFR   Intensive IFR   Very Intensive IFR
Visi :
Ceiling :
>= 8 km
>= 3000ft
5 to 8 km
1000 to 3000 ft
1500m to 5 km
500 to 1000 ft
800 to 1500m
200 to 500 ft
< 800m
< 200 ft
Symbols :   Thunderstorms  Fog  Heavy snow  Heavy precipitations  Wind > 20 kt
SIGMETs :     Misc.  Thunderstorms  Icing  Turbulence  Mountain Waves  Volcanic Ashes






- Airport Elevation : 277 ft
- IATA code : JER


EGJJ - Jersey

CURRENT METAR :
  • 290150Z AUTO 05017G30KT 020V090 9999 SCT027/// SCT031/// BKN037/// 06/01 Q1030

EXPIRED METARs :
  • 290120Z AUTO 05018G34KT 360V070 9999 SCT028/// BKN032/// 06/00 Q1030
  • 290050Z AUTO 05015G26KT 020V080 9999 BKN027/// BKN032/// 07/01 Q1030
  • 290020Z AUTO 05020G37KT 020V080 9999 FEW029/// SCT035/// 07/01 Q1030

TAF TAF EGJJ
Valid from the 29 at 00:00 until the 29 at 09:00 UTC


282259Z 2900/2909 05022KT 9999 SCT025
TEMPO 2900/2909 05025G38KT
ATIS : +44 1534 498 073



MET'MAP, your aeronautical weather chart ! - Copyright ORBIFLY December 2007 - Disclaimer

ORBIFLY MET'MAP TEAM :

Programming & Development : Alexandra Zaïnal
Concept & original design : Baudouin d'Aumeries
Assistance for programming : Marc-Olivier Méhu
Technical & hardware support : Manuel Goepfert

Contact : metmap@orbifly.com




SOURCES & CREDITS :

   NOAA